sensor_id;sensor_type;location;lat;lon;timestamp;P1;durP1;ratioP1;P2;durP2;ratioP2
64401;SDS011;50724;42.376;23.768;2023-02-15T00:02:50;40.50;;;13.68;;
64401;SDS011;50724;42.376;23.768;2023-02-15T00:05:51;35.00;;;13.25;;
64401;SDS011;50724;42.376;23.768;2023-02-15T00:08:51;29.10;;;12.57;;
64401;SDS011;50724;42.376;23.768;2023-02-15T00:11:53;34.35;;;13.52;;
64401;SDS011;50724;42.376;23.768;2023-02-15T00:14:53;39.33;;;14.80;;
64401;SDS011;50724;42.376;23.768;2023-02-15T00:17:54;41.13;;;15.17;;
64401;SDS011;50724;42.376;23.768;2023-02-15T00:20:54;39.67;;;14.18;;
64401;SDS011;50724;42.376;23.768;2023-02-15T00:23:54;35.83;;;14.63;;
64401;SDS011;50724;42.376;23.768;2023-02-15T00:26:55;29.33;;;11.75;;
64401;SDS011;50724;42.376;23.768;2023-02-15T00:29:56;32.15;;;13.65;;
64401;SDS011;50724;42.376;23.768;2023-02-15T00:32:56;36.90;;;13.17;;
64401;SDS011;50724;42.376;23.768;2023-02-15T00:35:57;34.33;;;13.90;;
64401;SDS011;50724;42.376;23.768;2023-02-15T00:38:58;33.92;;;14.20;;
64401;SDS011;50724;42.376;23.768;2023-02-15T00:41:59;32.33;;;12.93;;
64401;SDS011;50724;42.376;23.768;2023-02-15T00:44:59;34.27;;;13.87;;
64401;SDS011;50724;42.376;23.768;2023-02-15T00:48:00;33.97;;;12.38;;
64401;SDS011;50724;42.376;23.768;2023-02-15T00:51:00;29.83;;;13.05;;
64401;SDS011;50724;42.376;23.768;2023-02-15T00:54:01;33.13;;;12.00;;
64401;SDS011;50724;42.376;23.768;2023-02-15T00:57:02;37.90;;;13.85;;
64401;SDS011;50724;42.376;23.768;2023-02-15T01:00:02;48.97;;;17.30;;
64401;SDS011;50724;42.376;23.768;2023-02-15T01:03:03;36.97;;;15.13;;
64401;SDS011;50724;42.376;23.768;2023-02-15T01:06:04;33.00;;;12.23;;
64401;SDS011;50724;42.376;23.768;2023-02-15T01:09:05;33.53;;;13.93;;
64401;SDS011;50724;42.376;23.768;2023-02-15T01:12:05;34.65;;;13.75;;
64401;SDS011;50724;42.376;23.768;2023-02-15T01:15:05;38.00;;;15.23;;
64401;SDS011;50724;42.376;23.768;2023-02-15T01:18:06;25.13;;;11.25;;
64401;SDS011;50724;42.376;23.768;2023-02-15T01:21:10;31.23;;;13.00;;
64401;SDS011;50724;42.376;23.768;2023-02-15T01:24:14;26.63;;;12.35;;
64401;SDS011;50724;42.376;23.768;2023-02-15T01:27:14;33.42;;;11.73;;
64401;SDS011;50724;42.376;23.768;2023-02-15T01:30:15;24.65;;;11.35;;
64401;SDS011;50724;42.376;23.768;2023-02-15T01:33:16;36.25;;;14.32;;
64401;SDS011;50724;42.376;23.768;2023-02-15T01:36:17;32.72;;;14.32;;
64401;SDS011;50724;42.376;23.768;2023-02-15T01:39:18;36.10;;;14.05;;
64401;SDS011;50724;42.376;23.768;2023-02-15T01:42:22;36.35;;;15.52;;
64401;SDS011;50724;42.376;23.768;2023-02-15T01:45:25;39.63;;;14.55;;
64401;SDS011;50724;42.376;23.768;2023-02-15T01:48:28;32.38;;;12.25;;
64401;SDS011;50724;42.376;23.768;2023-02-15T01:51:29;27.55;;;11.80;;
64401;SDS011;50724;42.376;23.768;2023-02-15T01:54:32;33.80;;;15.13;;
64401;SDS011;50724;42.376;23.768;2023-02-15T01:57:35;32.20;;;12.73;;
64401;SDS011;50724;42.376;23.768;2023-02-15T02:00:37;35.08;;;12.75;;
64401;SDS011;50724;42.376;23.768;2023-02-15T02:03:47;32.83;;;12.35;;
64401;SDS011;50724;42.376;23.768;2023-02-15T02:06:56;31.85;;;11.52;;
64401;SDS011;50724;42.376;23.768;2023-02-15T02:09:57;34.38;;;13.35;;
64401;SDS011;50724;42.376;23.768;2023-02-15T02:12:59;34.38;;;11.30;;
64401;SDS011;50724;42.376;23.768;2023-02-15T02:16:11;34.30;;;13.27;;
64401;SDS011;50724;42.376;23.768;2023-02-15T02:46:05;32.88;;;13.65;;
64401;SDS011;50724;42.376;23.768;2023-02-15T02:49:13;30.13;;;12.73;;
64401;SDS011;50724;42.376;23.768;2023-02-15T02:55:37;34.40;;;13.43;;
64401;SDS011;50724;42.376;23.768;2023-02-15T02:58:41;30.45;;;12.60;;
64401;SDS011;50724;42.376;23.768;2023-02-15T03:02:03;28.63;;;10.18;;
64401;SDS011;50724;42.376;23.768;2023-02-15T03:05:09;36.50;;;14.18;;
64401;SDS011;50724;42.376;23.768;2023-02-15T03:08:15;36.22;;;13.35;;
64401;SDS011;50724;42.376;23.768;2023-02-15T03:11:21;30.38;;;11.85;;
64401;SDS011;50724;42.376;23.768;2023-02-15T03:14:22;32.30;;;13.02;;
64401;SDS011;50724;42.376;23.768;2023-02-15T03:17:22;32.10;;;12.40;;
64401;SDS011;50724;42.376;23.768;2023-02-15T03:20:29;37.13;;;14.68;;
64401;SDS011;50724;42.376;23.768;2023-02-15T03:23:34;34.13;;;11.23;;
64401;SDS011;50724;42.376;23.768;2023-02-15T03:26:38;27.15;;;11.63;;
64401;SDS011;50724;42.376;23.768;2023-02-15T03:29:40;31.88;;;13.18;;
64401;SDS011;50724;42.376;23.768;2023-02-15T03:32:40;33.88;;;13.40;;
64401;SDS011;50724;42.376;23.768;2023-02-15T03:42:35;22.85;;;9.95;;
64401;SDS011;50724;42.376;23.768;2023-02-15T03:45:48;32.20;;;11.80;;
64401;SDS011;50724;42.376;23.768;2023-02-15T03:48:57;28.30;;;11.55;;
64401;SDS011;50724;42.376;23.768;2023-02-15T03:52:02;33.45;;;12.80;;
64401;SDS011;50724;42.376;23.768;2023-02-15T03:55:07;33.67;;;13.23;;
64401;SDS011;50724;42.376;23.768;2023-02-15T03:58:07;30.77;;;11.50;;
64401;SDS011;50724;42.376;23.768;2023-02-15T04:01:47;26.80;;;11.63;;
64401;SDS011;50724;42.376;23.768;2023-02-15T04:04:57;27.00;;;13.38;;
64401;SDS011;50724;42.376;23.768;2023-02-15T04:07:57;27.47;;;11.47;;
64401;SDS011;50724;42.376;23.768;2023-02-15T04:10:57;24.00;;;10.57;;
64401;SDS011;50724;42.376;23.768;2023-02-15T04:13:58;23.20;;;8.80;;
64401;SDS011;50724;42.376;23.768;2023-02-15T04:16:58;27.30;;;12.30;;
64401;SDS011;50724;42.376;23.768;2023-02-15T04:19:58;22.33;;;9.07;;
64401;SDS011;50724;42.376;23.768;2023-02-15T04:23:25;21.65;;;10.25;;
64401;SDS011;50724;42.376;23.768;2023-02-15T04:26:44;27.00;;;9.98;;
64401;SDS011;50724;42.376;23.768;2023-02-15T04:29:45;22.42;;;11.07;;
64401;SDS011;50724;42.376;23.768;2023-02-15T04:32:45;22.77;;;9.97;;
64401;SDS011;50724;42.376;23.768;2023-02-15T04:35:46;24.55;;;11.20;;
64401;SDS011;50724;42.376;23.768;2023-02-15T04:38:47;21.40;;;8.73;;
64401;SDS011;50724;42.376;23.768;2023-02-15T04:41:47;26.75;;;10.57;;
64401;SDS011;50724;42.376;23.768;2023-02-15T04:44:47;21.20;;;9.98;;
64401;SDS011;50724;42.376;23.768;2023-02-15T04:47:58;26.58;;;8.98;;
64401;SDS011;50724;42.376;23.768;2023-02-15T04:51:15;23.63;;;9.82;;
64401;SDS011;50724;42.376;23.768;2023-02-15T04:54:16;22.65;;;10.35;;
64401;SDS011;50724;42.376;23.768;2023-02-15T04:57:16;23.10;;;10.27;;
64401;SDS011;50724;42.376;23.768;2023-02-15T05:00:17;22.92;;;9.15;;
64401;SDS011;50724;42.376;23.768;2023-02-15T05:03:17;24.77;;;11.07;;
64401;SDS011;50724;42.376;23.768;2023-02-15T05:06:18;24.70;;;10.90;;
64401;SDS011;50724;42.376;23.768;2023-02-15T05:09:18;24.77;;;10.07;;
64401;SDS011;50724;42.376;23.768;2023-02-15T05:12:19;32.13;;;11.18;;
64401;SDS011;50724;42.376;23.768;2023-02-15T05:15:19;23.85;;;10.68;;
64401;SDS011;50724;42.376;23.768;2023-02-15T05:18:20;30.95;;;11.65;;
64401;SDS011;50724;42.376;23.768;2023-02-15T05:21:21;27.48;;;9.45;;
64401;SDS011;50724;42.376;23.768;2023-02-15T05:24:21;23.98;;;10.60;;
64401;SDS011;50724;42.376;23.768;2023-02-15T05:27:40;22.17;;;9.80;;
64401;SDS011;50724;42.376;23.768;2023-02-15T05:31:33;29.92;;;11.68;;
64401;SDS011;50724;42.376;23.768;2023-02-15T05:34:26;21.58;;;10.00;;
64401;SDS011;50724;42.376;23.768;2023-02-15T05:37:27;24.45;;;10.15;;
64401;SDS011;50724;42.376;23.768;2023-02-15T05:40:27;26.75;;;10.15;;
64401;SDS011;50724;42.376;23.768;2023-02-15T05:43:28;16.60;;;8.02;;
64401;SDS011;50724;42.376;23.768;2023-02-15T05:46:29;24.00;;;8.57;;
64401;SDS011;50724;42.376;23.768;2023-02-15T05:49:29;27.83;;;10.10;;
64401;SDS011;50724;42.376;23.768;2023-02-15T05:52:30;23.00;;;9.60;;
64401;SDS011;50724;42.376;23.768;2023-02-15T05:55:30;22.90;;;9.32;;
64401;SDS011;50724;42.376;23.768;2023-02-15T05:58:32;26.70;;;11.60;;
64401;SDS011;50724;42.376;23.768;2023-02-15T06:01:35;25.65;;;10.98;;
64401;SDS011;50724;42.376;23.768;2023-02-15T06:04:35;25.38;;;10.43;;
64401;SDS011;50724;42.376;23.768;2023-02-15T06:07:36;24.83;;;9.25;;
64401;SDS011;50724;42.376;23.768;2023-02-15T06:10:36;22.83;;;11.02;;
64401;SDS011;50724;42.376;23.768;2023-02-15T06:13:37;29.25;;;9.95;;
64401;SDS011;50724;42.376;23.768;2023-02-15T06:16:37;26.50;;;9.70;;
64401;SDS011;50724;42.376;23.768;2023-02-15T06:19:38;25.23;;;8.45;;
64401;SDS011;50724;42.376;23.768;2023-02-15T06:22:39;20.70;;;8.63;;
64401;SDS011;50724;42.376;23.768;2023-02-15T06:25:39;18.38;;;9.05;;
64401;SDS011;50724;42.376;23.768;2023-02-15T06:28:39;23.20;;;10.02;;
64401;SDS011;50724;42.376;23.768;2023-02-15T06:31:41;25.10;;;10.90;;
64401;SDS011;50724;42.376;23.768;2023-02-15T06:34:41;25.20;;;9.63;;
64401;SDS011;50724;42.376;23.768;2023-02-15T06:37:41;20.47;;;9.13;;
64401;SDS011;50724;42.376;23.768;2023-02-15T06:40:44;19.33;;;9.10;;
64401;SDS011;50724;42.376;23.768;2023-02-15T06:43:45;18.63;;;8.30;;
64401;SDS011;50724;42.376;23.768;2023-02-15T06:46:45;20.65;;;8.95;;
64401;SDS011;50724;42.376;23.768;2023-02-15T06:49:46;20.55;;;8.93;;
64401;SDS011;50724;42.376;23.768;2023-02-15T06:52:46;23.70;;;11.50;;
64401;SDS011;50724;42.376;23.768;2023-02-15T06:55:47;23.38;;;10.05;;
64401;SDS011;50724;42.376;23.768;2023-02-15T06:58:47;21.97;;;9.27;;
64401;SDS011;50724;42.376;23.768;2023-02-15T07:01:49;19.83;;;9.07;;
64401;SDS011;50724;42.376;23.768;2023-02-15T07:04:49;23.15;;;10.02;;
64401;SDS011;50724;42.376;23.768;2023-02-15T07:07:50;15.07;;;7.47;;
64401;SDS011;50724;42.376;23.768;2023-02-15T07:10:51;24.25;;;9.00;;
64401;SDS011;50724;42.376;23.768;2023-02-15T07:13:53;20.88;;;9.90;;
64401;SDS011;50724;42.376;23.768;2023-02-15T07:16:53;22.77;;;10.13;;
64401;SDS011;50724;42.376;23.768;2023-02-15T07:19:54;17.70;;;6.47;;
64401;SDS011;50724;42.376;23.768;2023-02-15T07:22:55;15.30;;;6.00;;
64401;SDS011;50724;42.376;23.768;2023-02-15T07:25:58;19.48;;;8.38;;
64401;SDS011;50724;42.376;23.768;2023-02-15T07:28:59;21.90;;;8.57;;
64401;SDS011;50724;42.376;23.768;2023-02-15T07:31:59;18.67;;;8.93;;
64401;SDS011;50724;42.376;23.768;2023-02-15T07:35:00;16.55;;;7.40;;
64401;SDS011;50724;42.376;23.768;2023-02-15T07:38:00;18.55;;;8.02;;
64401;SDS011;50724;42.376;23.768;2023-02-15T07:41:02;17.77;;;7.93;;
64401;SDS011;50724;42.376;23.768;2023-02-15T07:44:04;17.42;;;8.18;;
64401;SDS011;50724;42.376;23.768;2023-02-15T07:47:04;16.48;;;8.07;;
64401;SDS011;50724;42.376;23.768;2023-02-15T07:50:05;17.33;;;8.68;;
64401;SDS011;50724;42.376;23.768;2023-02-15T07:53:06;18.35;;;8.10;;
64401;SDS011;50724;42.376;23.768;2023-02-15T07:56:11;17.65;;;7.32;;
64401;SDS011;50724;42.376;23.768;2023-02-15T07:59:12;15.13;;;7.13;;
64401;SDS011;50724;42.376;23.768;2023-02-15T08:02:13;18.13;;;7.63;;
64401;SDS011;50724;42.376;23.768;2023-02-15T08:05:14;13.43;;;6.07;;
64401;SDS011;50724;42.376;23.768;2023-02-15T08:08:16;20.02;;;8.40;;
64401;SDS011;50724;42.376;23.768;2023-02-15T08:11:33;19.27;;;8.18;;
64401;SDS011;50724;42.376;23.768;2023-02-15T08:14:36;18.00;;;7.40;;
64401;SDS011;50724;42.376;23.768;2023-02-15T08:17:37;20.77;;;6.88;;
64401;SDS011;50724;42.376;23.768;2023-02-15T08:20:37;21.70;;;6.93;;
64401;SDS011;50724;42.376;23.768;2023-02-15T08:23:38;17.10;;;7.07;;
64401;SDS011;50724;42.376;23.768;2023-02-15T08:26:38;16.23;;;6.28;;
64401;SDS011;50724;42.376;23.768;2023-02-15T08:29:40;19.95;;;8.05;;
64401;SDS011;50724;42.376;23.768;2023-02-15T08:32:42;14.07;;;6.25;;
64401;SDS011;50724;42.376;23.768;2023-02-15T08:35:42;14.10;;;7.33;;
64401;SDS011;50724;42.376;23.768;2023-02-15T08:38:43;19.33;;;8.83;;
64401;SDS011;50724;42.376;23.768;2023-02-15T08:41:44;14.35;;;7.28;;
64401;SDS011;50724;42.376;23.768;2023-02-15T08:47:47;13.00;;;5.75;;
64401;SDS011;50724;42.376;23.768;2023-02-15T08:50:47;18.27;;;7.20;;
64401;SDS011;50724;42.376;23.768;2023-02-15T08:53:48;16.77;;;7.50;;
64401;SDS011;50724;42.376;23.768;2023-02-15T08:56:51;22.05;;;7.68;;
64401;SDS011;50724;42.376;23.768;2023-02-15T08:59:51;16.73;;;7.43;;
64401;SDS011;50724;42.376;23.768;2023-02-15T09:02:54;12.95;;;5.68;;
64401;SDS011;50724;42.376;23.768;2023-02-15T09:05:58;16.70;;;7.82;;
64401;SDS011;50724;42.376;23.768;2023-02-15T09:09:00;17.58;;;7.70;;
64401;SDS011;50724;42.376;23.768;2023-02-15T09:12:01;18.17;;;7.72;;
64401;SDS011;50724;42.376;23.768;2023-02-15T09:15:02;17.88;;;8.57;;
64401;SDS011;50724;42.376;23.768;2023-02-15T09:18:03;16.13;;;7.38;;
64401;SDS011;50724;42.376;23.768;2023-02-15T09:24:08;17.02;;;7.00;;
64401;SDS011;50724;42.376;23.768;2023-02-15T09:27:11;17.83;;;7.30;;
64401;SDS011;50724;42.376;23.768;2023-02-15T09:30:11;15.82;;;6.18;;
64401;SDS011;50724;42.376;23.768;2023-02-15T09:33:12;19.67;;;6.15;;
64401;SDS011;50724;42.376;23.768;2023-02-15T09:39:22;15.70;;;7.28;;
64401;SDS011;50724;42.376;23.768;2023-02-15T09:42:43;14.60;;;7.18;;
64401;SDS011;50724;42.376;23.768;2023-02-15T09:49:12;15.13;;;6.57;;
64401;SDS011;50724;42.376;23.768;2023-02-15T10:12:36;17.95;;;7.28;;
64401;SDS011;50724;42.376;23.768;2023-02-15T10:18:57;13.77;;;6.47;;
64401;SDS011;50724;42.376;23.768;2023-02-15T10:35:24;17.77;;;7.25;;
64401;SDS011;50724;42.376;23.768;2023-02-15T10:52:21;12.23;;;5.22;;
64401;SDS011;50724;42.376;23.768;2023-02-15T10:55:41;13.70;;;6.72;;
64401;SDS011;50724;42.376;23.768;2023-02-15T11:02:24;11.65;;;4.97;;
64401;SDS011;50724;42.376;23.768;2023-02-15T11:06:10;12.93;;;6.43;;
64401;SDS011;50724;42.376;23.768;2023-02-15T11:08:59;12.93;;;5.68;;
64401;SDS011;50724;42.376;23.768;2023-02-15T11:12:03;14.23;;;6.65;;
64401;SDS011;50724;42.376;23.768;2023-02-15T11:18:37;12.25;;;5.80;;
64401;SDS011;50724;42.376;23.768;2023-02-15T11:21:43;13.57;;;5.63;;
64401;SDS011;50724;42.376;23.768;2023-02-15T11:24:47;17.10;;;7.00;;
64401;SDS011;50724;42.376;23.768;2023-02-15T11:27:48;13.68;;;6.80;;
64401;SDS011;50724;42.376;23.768;2023-02-15T11:30:51;17.08;;;7.60;;
64401;SDS011;50724;42.376;23.768;2023-02-15T11:33:58;15.85;;;6.82;;
64401;SDS011;50724;42.376;23.768;2023-02-15T11:37:07;22.35;;;8.38;;
64401;SDS011;50724;42.376;23.768;2023-02-15T11:40:19;21.73;;;8.65;;
64401;SDS011;50724;42.376;23.768;2023-02-15T11:43:42;18.20;;;8.55;;
64401;SDS011;50724;42.376;23.768;2023-02-15T11:46:48;15.48;;;7.75;;
64401;SDS011;50724;42.376;23.768;2023-02-15T11:49:49;15.85;;;7.93;;
64401;SDS011;50724;42.376;23.768;2023-02-15T11:52:50;19.17;;;8.43;;
64401;SDS011;50724;42.376;23.768;2023-02-15T11:55:52;18.42;;;8.85;;
64401;SDS011;50724;42.376;23.768;2023-02-15T11:59:00;14.05;;;6.47;;
64401;SDS011;50724;42.376;23.768;2023-02-15T12:02:18;17.27;;;8.95;;
64401;SDS011;50724;42.376;23.768;2023-02-15T12:05:20;16.85;;;7.20;;
64401;SDS011;50724;42.376;23.768;2023-02-15T12:08:24;18.20;;;8.10;;
64401;SDS011;50724;42.376;23.768;2023-02-15T12:11:38;15.38;;;7.25;;
64401;SDS011;50724;42.376;23.768;2023-02-15T12:14:53;10.70;;;4.65;;
64401;SDS011;50724;42.376;23.768;2023-02-15T12:17:57;14.05;;;6.60;;
64401;SDS011;50724;42.376;23.768;2023-02-15T12:20:59;11.95;;;5.88;;
64401;SDS011;50724;42.376;23.768;2023-02-15T12:24:23;14.90;;;6.70;;
64401;SDS011;50724;42.376;23.768;2023-02-15T12:30:31;20.52;;;8.23;;
64401;SDS011;50724;42.376;23.768;2023-02-15T12:33:41;15.93;;;7.38;;
64401;SDS011;50724;42.376;23.768;2023-02-15T13:37:20;16.17;;;7.97;;
64401;SDS011;50724;42.376;23.768;2023-02-15T14:07:47;19.17;;;8.73;;
64401;SDS011;50724;42.376;23.768;2023-02-15T14:11:01;21.05;;;9.82;;
64401;SDS011;50724;42.376;23.768;2023-02-15T14:17:46;14.95;;;7.45;;
64401;SDS011;50724;42.376;23.768;2023-02-15T14:24:07;24.48;;;10.98;;
64401;SDS011;50724;42.376;23.768;2023-02-15T14:27:18;24.10;;;10.77;;
64401;SDS011;50724;42.376;23.768;2023-02-15T14:30:32;17.23;;;8.13;;
64401;SDS011;50724;42.376;23.768;2023-02-15T14:33:39;23.60;;;10.50;;
64401;SDS011;50724;42.376;23.768;2023-02-15T14:36:43;22.80;;;10.10;;
64401;SDS011;50724;42.376;23.768;2023-02-15T14:47:11;27.75;;;12.57;;
64401;SDS011;50724;42.376;23.768;2023-02-15T14:53:40;22.58;;;8.57;;
64401;SDS011;50724;42.376;23.768;2023-02-15T14:56:42;21.15;;;10.18;;
64401;SDS011;50724;42.376;23.768;2023-02-15T15:02:52;29.02;;;14.25;;
64401;SDS011;50724;42.376;23.768;2023-02-15T15:05:55;27.30;;;10.88;;
64401;SDS011;50724;42.376;23.768;2023-02-15T15:09:00;28.33;;;11.63;;
64401;SDS011;50724;42.376;23.768;2023-02-15T15:18:43;29.02;;;12.57;;
64401;SDS011;50724;42.376;23.768;2023-02-15T15:24:58;32.15;;;12.25;;
64401;SDS011;50724;42.376;23.768;2023-02-15T15:28:00;29.73;;;12.02;;
64401;SDS011;50724;42.376;23.768;2023-02-15T15:31:04;35.08;;;13.85;;
64401;SDS011;50724;42.376;23.768;2023-02-15T15:37:27;27.88;;;11.93;;
64401;SDS011;50724;42.376;23.768;2023-02-15T15:50:40;33.33;;;13.63;;
64401;SDS011;50724;42.376;23.768;2023-02-15T15:53:44;24.05;;;10.32;;
64401;SDS011;50724;42.376;23.768;2023-02-15T15:56:52;36.53;;;13.63;;
64401;SDS011;50724;42.376;23.768;2023-02-15T15:59:57;35.67;;;14.85;;
64401;SDS011;50724;42.376;23.768;2023-02-15T16:03:00;20.23;;;9.55;;
64401;SDS011;50724;42.376;23.768;2023-02-15T16:06:01;31.23;;;12.68;;
64401;SDS011;50724;42.376;23.768;2023-02-15T16:12:21;32.72;;;13.23;;
64401;SDS011;50724;42.376;23.768;2023-02-15T16:15:27;34.65;;;14.82;;
64401;SDS011;50724;42.376;23.768;2023-02-15T16:18:34;36.10;;;15.10;;
64401;SDS011;50724;42.376;23.768;2023-02-15T16:21:38;34.05;;;14.95;;
64401;SDS011;50724;42.376;23.768;2023-02-15T16:28:07;33.45;;;13.55;;
64401;SDS011;50724;42.376;23.768;2023-02-15T16:31:12;35.20;;;14.10;;
64401;SDS011;50724;42.376;23.768;2023-02-15T16:34:16;32.53;;;13.77;;
64401;SDS011;50724;42.376;23.768;2023-02-15T16:37:18;30.98;;;12.75;;
64401;SDS011;50724;42.376;23.768;2023-02-15T16:43:26;30.37;;;12.87;;
64401;SDS011;50724;42.376;23.768;2023-02-15T16:46:31;25.95;;;11.77;;
64401;SDS011;50724;42.376;23.768;2023-02-15T16:49:37;27.50;;;11.82;;
64401;SDS011;50724;42.376;23.768;2023-02-15T16:52:40;29.83;;;11.30;;
64401;SDS011;50724;42.376;23.768;2023-02-15T16:55:43;28.55;;;10.57;;
64401;SDS011;50724;42.376;23.768;2023-02-15T16:58:50;28.73;;;11.23;;
64401;SDS011;50724;42.376;23.768;2023-02-15T17:36:34;32.22;;;14.10;;
64401;SDS011;50724;42.376;23.768;2023-02-15T17:39:34;31.33;;;12.50;;
64401;SDS011;50724;42.376;23.768;2023-02-15T17:42:35;31.40;;;12.55;;
64401;SDS011;50724;42.376;23.768;2023-02-15T17:45:43;31.27;;;12.67;;
64401;SDS011;50724;42.376;23.768;2023-02-15T17:48:48;31.50;;;11.93;;
64401;SDS011;50724;42.376;23.768;2023-02-15T17:51:50;33.95;;;13.60;;
64401;SDS011;50724;42.376;23.768;2023-02-15T17:54:51;27.48;;;11.55;;
64401;SDS011;50724;42.376;23.768;2023-02-15T17:58:10;31.67;;;12.43;;
64401;SDS011;50724;42.376;23.768;2023-02-15T18:01:16;31.45;;;12.80;;
64401;SDS011;50724;42.376;23.768;2023-02-15T18:04:37;30.60;;;12.60;;
64401;SDS011;50724;42.376;23.768;2023-02-15T18:07:56;36.00;;;13.05;;
64401;SDS011;50724;42.376;23.768;2023-02-15T18:11:16;36.08;;;13.70;;
64401;SDS011;50724;42.376;23.768;2023-02-15T18:14:37;37.53;;;14.50;;
64401;SDS011;50724;42.376;23.768;2023-02-15T18:17:38;41.80;;;15.83;;
64401;SDS011;50724;42.376;23.768;2023-02-15T18:20:42;35.70;;;14.55;;
64401;SDS011;50724;42.376;23.768;2023-02-15T18:23:43;32.83;;;14.23;;
64401;SDS011;50724;42.376;23.768;2023-02-15T18:26:44;31.60;;;12.88;;
64401;SDS011;50724;42.376;23.768;2023-02-15T18:29:44;33.92;;;13.30;;
64401;SDS011;50724;42.376;23.768;2023-02-15T18:32:45;39.17;;;13.45;;
64401;SDS011;50724;42.376;23.768;2023-02-15T18:35:47;34.83;;;13.27;;
64401;SDS011;50724;42.376;23.768;2023-02-15T18:38:50;40.28;;;14.80;;
64401;SDS011;50724;42.376;23.768;2023-02-15T18:41:52;32.25;;;13.90;;
64401;SDS011;50724;42.376;23.768;2023-02-15T18:44:54;38.35;;;14.52;;
64401;SDS011;50724;42.376;23.768;2023-02-15T18:47:56;36.17;;;14.10;;
64401;SDS011;50724;42.376;23.768;2023-02-15T18:50:57;35.72;;;14.07;;
64401;SDS011;50724;42.376;23.768;2023-02-15T18:53:57;33.97;;;14.65;;
64401;SDS011;50724;42.376;23.768;2023-02-15T18:56:59;33.33;;;14.98;;
64401;SDS011;50724;42.376;23.768;2023-02-15T19:00:00;34.00;;;13.27;;
64401;SDS011;50724;42.376;23.768;2023-02-15T19:03:01;36.28;;;12.90;;
64401;SDS011;50724;42.376;23.768;2023-02-15T19:06:11;39.85;;;13.65;;
64401;SDS011;50724;42.376;23.768;2023-02-15T19:09:16;32.78;;;12.90;;
64401;SDS011;50724;42.376;23.768;2023-02-15T19:12:19;32.55;;;13.68;;
64401;SDS011;50724;42.376;23.768;2023-02-15T19:15:23;29.98;;;12.32;;
64401;SDS011;50724;42.376;23.768;2023-02-15T19:18:25;24.92;;;11.32;;
64401;SDS011;50724;42.376;23.768;2023-02-15T19:21:26;28.90;;;12.73;;
64401;SDS011;50724;42.376;23.768;2023-02-15T19:24:38;25.23;;;11.20;;
64401;SDS011;50724;42.376;23.768;2023-02-15T19:27:40;30.35;;;13.68;;
64401;SDS011;50724;42.376;23.768;2023-02-15T19:30:41;28.27;;;13.32;;
64401;SDS011;50724;42.376;23.768;2023-02-15T19:33:42;30.48;;;12.93;;
64401;SDS011;50724;42.376;23.768;2023-02-15T19:36:43;32.80;;;12.18;;
64401;SDS011;50724;42.376;23.768;2023-02-15T19:42:46;29.83;;;12.47;;
64401;SDS011;50724;42.376;23.768;2023-02-15T19:45:47;31.05;;;13.63;;
64401;SDS011;50724;42.376;23.768;2023-02-15T19:48:48;28.65;;;12.18;;
64401;SDS011;50724;42.376;23.768;2023-02-15T19:51:49;27.27;;;11.68;;
64401;SDS011;50724;42.376;23.768;2023-02-15T19:54:50;38.42;;;13.70;;
64401;SDS011;50724;42.376;23.768;2023-02-15T19:57:54;31.40;;;13.15;;
64401;SDS011;50724;42.376;23.768;2023-02-15T20:00:56;33.38;;;13.30;;
64401;SDS011;50724;42.376;23.768;2023-02-15T20:03:56;31.73;;;13.77;;
64401;SDS011;50724;42.376;23.768;2023-02-15T20:06:58;35.05;;;14.38;;
64401;SDS011;50724;42.376;23.768;2023-02-15T20:10:01;36.95;;;13.57;;
64401;SDS011;50724;42.376;23.768;2023-02-15T20:13:02;31.10;;;14.02;;
64401;SDS011;50724;42.376;23.768;2023-02-15T20:16:03;33.27;;;14.03;;
64401;SDS011;50724;42.376;23.768;2023-02-15T20:19:07;35.83;;;14.48;;
64401;SDS011;50724;42.376;23.768;2023-02-15T20:22:21;35.40;;;13.63;;
64401;SDS011;50724;42.376;23.768;2023-02-15T20:25:27;34.28;;;12.95;;
64401;SDS011;50724;42.376;23.768;2023-02-15T20:28:29;34.10;;;13.07;;
64401;SDS011;50724;42.376;23.768;2023-02-15T20:31:30;31.17;;;11.18;;
64401;SDS011;50724;42.376;23.768;2023-02-15T20:34:31;34.55;;;14.23;;
64401;SDS011;50724;42.376;23.768;2023-02-15T20:37:32;30.42;;;13.57;;
64401;SDS011;50724;42.376;23.768;2023-02-15T20:40:33;31.77;;;12.88;;
64401;SDS011;50724;42.376;23.768;2023-02-15T20:43:34;36.42;;;13.88;;
64401;SDS011;50724;42.376;23.768;2023-02-15T20:46:35;29.92;;;12.23;;
64401;SDS011;50724;42.376;23.768;2023-02-15T20:49:35;29.80;;;12.20;;
64401;SDS011;50724;42.376;23.768;2023-02-15T20:52:35;35.47;;;14.05;;
64401;SDS011;50724;42.376;23.768;2023-02-15T20:55:36;32.28;;;12.88;;
64401;SDS011;50724;42.376;23.768;2023-02-15T20:58:36;33.80;;;11.93;;
64401;SDS011;50724;42.376;23.768;2023-02-15T21:01:38;32.97;;;13.68;;
64401;SDS011;50724;42.376;23.768;2023-02-15T21:04:39;29.25;;;12.98;;
64401;SDS011;50724;42.376;23.768;2023-02-15T21:07:39;34.00;;;13.13;;
64401;SDS011;50724;42.376;23.768;2023-02-15T21:10:40;27.83;;;12.18;;
64401;SDS011;50724;42.376;23.768;2023-02-15T21:13:44;33.92;;;13.25;;
64401;SDS011;50724;42.376;23.768;2023-02-15T21:16:45;32.03;;;11.93;;
64401;SDS011;50724;42.376;23.768;2023-02-15T21:19:46;29.80;;;12.32;;
64401;SDS011;50724;42.376;23.768;2023-02-15T21:22:47;32.70;;;13.07;;
64401;SDS011;50724;42.376;23.768;2023-02-15T21:25:48;36.50;;;12.63;;
64401;SDS011;50724;42.376;23.768;2023-02-15T21:28:48;31.90;;;13.18;;
64401;SDS011;50724;42.376;23.768;2023-02-15T21:31:49;29.80;;;12.88;;
64401;SDS011;50724;42.376;23.768;2023-02-15T21:34:50;37.90;;;14.02;;
64401;SDS011;50724;42.376;23.768;2023-02-15T21:37:51;36.03;;;14.88;;
64401;SDS011;50724;42.376;23.768;2023-02-15T21:40:52;34.83;;;14.20;;
64401;SDS011;50724;42.376;23.768;2023-02-15T21:43:52;31.67;;;12.85;;
64401;SDS011;50724;42.376;23.768;2023-02-15T21:47:18;32.97;;;11.95;;
64401;SDS011;50724;42.376;23.768;2023-02-15T21:50:39;32.97;;;11.40;;
64401;SDS011;50724;42.376;23.768;2023-02-15T21:53:59;32.67;;;13.45;;
64401;SDS011;50724;42.376;23.768;2023-02-15T21:56:59;33.20;;;13.20;;
64401;SDS011;50724;42.376;23.768;2023-02-15T22:00:00;34.40;;;14.63;;
64401;SDS011;50724;42.376;23.768;2023-02-15T22:03:01;30.85;;;13.57;;
64401;SDS011;50724;42.376;23.768;2023-02-15T22:06:04;38.05;;;13.45;;
64401;SDS011;50724;42.376;23.768;2023-02-15T22:09:15;41.20;;;14.20;;
64401;SDS011;50724;42.376;23.768;2023-02-15T22:12:17;33.83;;;11.73;;
64401;SDS011;50724;42.376;23.768;2023-02-15T22:15:20;34.42;;;13.77;;
64401;SDS011;50724;42.376;23.768;2023-02-15T22:18:23;29.48;;;11.93;;
64401;SDS011;50724;42.376;23.768;2023-02-15T22:21:26;26.38;;;11.20;;
64401;SDS011;50724;42.376;23.768;2023-02-15T22:24:30;31.60;;;12.20;;
64401;SDS011;50724;42.376;23.768;2023-02-15T22:27:30;30.48;;;11.55;;
64401;SDS011;50724;42.376;23.768;2023-02-15T22:30:37;32.88;;;12.30;;
64401;SDS011;50724;42.376;23.768;2023-02-15T22:33:37;34.70;;;11.80;;
64401;SDS011;50724;42.376;23.768;2023-02-15T22:36:38;32.75;;;12.07;;